createdAt,value
2023-01-23T00:00:29.281Z,18.80
2023-01-23T00:04:59.360Z,17.50
2023-01-23T00:09:29.439Z,20.70
2023-01-23T00:17:39.603Z,19.40
2023-01-23T00:22:08.566Z,38.80
2023-01-23T00:26:30.690Z,34.70
2023-01-23T00:50:35.930Z,27.80
2023-01-23T00:55:05.442Z,43.00
2023-01-23T00:59:34.354Z,26.80
2023-01-23T01:03:45.256Z,27.90
2023-01-23T01:08:14.916Z,27.90
2023-01-23T01:29:14.571Z,16.80
2023-01-23T01:33:43.445Z,20.70
2023-01-23T01:38:11.288Z,19.60
2023-01-23T01:42:25.501Z,19.20
2023-01-23T02:04:00.893Z,18.80
2023-01-23T02:08:39.043Z,17.90
2023-01-23T02:13:08.484Z,16.70
2023-01-23T02:17:27.481Z,16.70
2023-01-23T02:21:56.930Z,19.10
2023-01-23T02:40:09.602Z,18.70
2023-01-23T02:44:28.638Z,16.10
2023-01-23T02:48:59.110Z,15.60
2023-01-23T03:10:08.403Z,15.50
2023-01-23T03:14:36.007Z,13.80
2023-01-23T03:18:58.521Z,15.20
2023-01-23T03:40:21.584Z,15.90
2023-01-23T03:44:51.278Z,15.20
2023-01-23T03:49:20.294Z,14.30
2023-01-23T04:23:30.328Z,15.20
2023-01-23T04:27:59.228Z,16.60
2023-01-23T04:32:20.870Z,20.60
2023-01-23T04:40:36.328Z,19.40
2023-01-23T04:45:05.459Z,18.50
2023-01-23T05:08:24.861Z,20.00
2023-01-23T05:12:53.735Z,17.40
2023-01-23T05:17:03.109Z,21.40
2023-01-23T05:21:33.567Z,24.00
2023-01-23T05:38:11.730Z,22.40
2023-01-23T05:42:41.401Z,20.90
2023-01-23T05:47:26.163Z,31.10
2023-01-23T05:51:56.008Z,24.30
2023-01-23T06:17:42.807Z,18.30
2023-01-23T06:21:31.644Z,17.00
2023-01-23T06:29:11.700Z,17.50
2023-01-23T06:33:12.492Z,18.40
2023-01-23T06:37:41.840Z,17.60
2023-01-23T06:41:30.075Z,15.70
2023-01-23T06:45:54.637Z,17.10
2023-01-23T06:49:28.319Z,22.00
2023-01-23T06:53:07.723Z,21.00
2023-01-23T06:57:37.734Z,34.40
2023-01-23T07:01:55.257Z,35.60
2023-01-23T07:05:56.087Z,25.20
2023-01-23T07:14:21.012Z,23.10
2023-01-23T07:17:41.047Z,20.30
2023-01-23T07:20:39.140Z,23.30
2023-01-23T07:24:28.870Z,22.90
2023-01-23T07:28:26.957Z,20.40
2023-01-23T07:31:37.847Z,20.20
2023-01-23T07:35:28.143Z,22.50
2023-01-23T07:39:02.421Z,18.90
2023-01-23T07:42:28.039Z,18.90
2023-01-23T07:45:33.960Z,21.70
2023-01-23T07:49:11.303Z,26.20
2023-01-23T07:52:23.338Z,23.20
2023-01-23T07:55:53.998Z,24.30
2023-01-23T07:59:52.553Z,27.10
2023-01-23T08:03:32.635Z,25.70
2023-01-23T08:07:42.032Z,25.70
2023-01-23T08:11:39.342Z,27.10
2023-01-23T08:19:43.465Z,27.90
2023-01-23T08:27:20.760Z,23.60
2023-01-23T08:43:48.466Z,22.90
2023-01-23T08:46:49.264Z,21.90
2023-01-23T08:50:53.508Z,21.70
2023-01-23T08:54:58.765Z,22.40
2023-01-23T08:59:28.199Z,18.10
2023-01-23T09:03:37.704Z,23.80
2023-01-23T09:07:32.023Z,22.20
2023-01-23T09:10:57.636Z,26.60
2023-01-23T09:14:47.584Z,27.00
2023-01-23T09:18:33.751Z,19.60
2023-01-23T09:21:34.164Z,32.60
2023-01-23T09:25:11.937Z,27.80
2023-01-23T09:29:16.176Z,22.20
2023-01-23T09:32:54.723Z,18.20
2023-01-23T09:35:52.995Z,18.30
2023-01-23T09:39:05.266Z,21.50
2023-01-23T09:42:37.636Z,19.80
2023-01-23T09:46:26.975Z,19.40
2023-01-23T09:50:00.628Z,16.70
2023-01-23T09:54:03.790Z,21.10
2023-01-23T10:01:48.896Z,19.10
2023-01-23T10:05:17.390Z,16.90
2023-01-23T10:09:40.448Z,20.20
2023-01-23T10:13:59.113Z,22.40
2023-01-23T10:27:00.853Z,17.00
2023-01-23T10:31:07.044Z,17.80
2023-01-23T10:58:00.252Z,16.80
2023-01-23T11:02:14.495Z,16.00
2023-01-23T11:06:21.155Z,15.10
2023-01-23T11:10:48.510Z,19.20
2023-01-23T11:18:26.202Z,11.50
2023-01-23T11:23:06.111Z,10.80
2023-01-23T11:26:35.712Z,10.00
2023-01-23T11:30:37.133Z,14.50
2023-01-23T11:34:48.498Z,13.40
2023-01-23T11:38:53.013Z,13.10
2023-01-23T11:42:11.575Z,10.50
2023-01-23T11:46:50.936Z,12.70
2023-01-23T11:50:56.201Z,13.70
2023-01-23T11:55:23.014Z,11.60
2023-01-23T11:59:42.276Z,12.60
2023-01-23T12:04:05.533Z,12.50
2023-01-23T12:13:25.275Z,11.80
2023-01-23T12:40:02.954Z,12.50
2023-01-23T12:44:42.257Z,11.20
2023-01-23T12:48:58.637Z,12.00
2023-01-23T12:53:30.250Z,10.20
2023-01-23T12:58:08.988Z,14.30
2023-01-23T13:07:45.067Z,10.80
2023-01-23T13:12:21.307Z,9.30
2023-01-23T13:16:45.829Z,9.10
2023-01-23T13:21:31.631Z,11.90
2023-01-23T13:25:55.290Z,11.00
2023-01-23T13:30:24.017Z,23.30
2023-01-23T13:34:59.053Z,15.30
2023-01-23T14:46:55.292Z,15.40
2023-01-23T14:51:24.901Z,16.20
2023-01-23T14:56:02.321Z,16.30
2023-01-23T15:04:38.166Z,17.10
2023-01-23T15:09:07.673Z,13.30
2023-01-23T15:35:16.613Z,30.00
2023-01-23T15:39:48.792Z,17.20
2023-01-23T15:44:08.897Z,13.10
2023-01-23T16:06:34.056Z,13.00
2023-01-23T16:10:56.554Z,12.00
2023-01-23T16:15:25.929Z,13.80
2023-01-23T16:19:55.521Z,18.40
2023-01-23T17:06:59.214Z,13.10
2023-01-23T17:11:28.628Z,13.30
2023-01-23T17:16:18.580Z,16.00
2023-01-23T17:37:19.826Z,14.70
2023-01-23T17:41:55.111Z,17.00
2023-01-23T17:46:24.844Z,15.60
2023-01-23T17:50:57.793Z,19.60
2023-01-23T17:55:13.487Z,13.60
2023-01-23T18:21:34.356Z,13.40
2023-01-23T18:25:54.403Z,12.90
2023-01-23T18:43:58.165Z,14.70
2023-01-23T18:48:24.273Z,14.90
2023-01-23T18:52:58.234Z,14.40
2023-01-23T18:57:30.188Z,18.10
2023-01-23T19:02:15.109Z,15.30
2023-01-23T19:23:37.442Z,33.30
2023-01-23T19:28:05.527Z,35.00
2023-01-23T19:32:17.572Z,34.30
2023-01-23T19:41:38.556Z,27.30
2023-01-23T19:45:38.622Z,26.00
2023-01-23T19:50:08.012Z,27.80
2023-01-23T19:54:27.932Z,25.60
2023-01-23T20:17:09.336Z,23.10
2023-01-23T20:21:38.936Z,18.60
2023-01-23T20:26:08.435Z,25.20
2023-01-23T20:30:33.029Z,19.00
2023-01-23T21:00:43.193Z,17.50
2023-01-23T21:05:12.593Z,15.90
2023-01-23T21:09:41.809Z,14.40
2023-01-23T21:14:03.280Z,14.10
2023-01-23T21:18:31.517Z,16.50
2023-01-23T21:22:48.370Z,14.30
2023-01-23T21:44:34.597Z,17.30
2023-01-23T21:49:05.155Z,18.10
2023-01-23T21:53:34.390Z,18.10
2023-01-23T22:16:12.213Z,21.60
2023-01-23T22:20:24.605Z,17.70
2023-01-23T22:24:54.794Z,18.50
2023-01-23T22:41:53.401Z,19.60
2023-01-23T22:46:13.998Z,19.00
2023-01-23T22:50:44.618Z,28.80
2023-01-23T22:55:12.964Z,34.00
2023-01-23T22:59:18.462Z,24.30
2023-01-23T23:07:34.200Z,25.00
2023-01-23T23:11:28.062Z,25.80
2023-01-23T23:15:57.597Z,31.20
2023-01-23T23:20:26.551Z,30.40
2023-01-23T23:24:37.203Z,26.30
2023-01-23T23:46:11.425Z,25.60
2023-01-23T23:50:30.879Z,23.30
2023-01-23T23:55:00.720Z,23.30
